Time;durP1;ratioP1;P1;durP2;ratioP2;P2;SDS_P1;SDS_P2;PMS_P1;PMS_P2;Temp;Humidity;BMP_temperature;BMP_pressure;BME280_temperature;BME280_humidity;BME280_pressure;Samples;Min_cycle;Max_cycle;Signal;HPM_P1;HPM_P2
2021/05/18 00:02:14;;;;;;;;;;;26.90;92.30;;;;;;5105101;28;19919;-50
2021/05/18 00:04:40;;;;;;;;;;;26.90;92.40;;;;;;5104862;28;19914;-47
2021/05/18 00:07:11;;;;;;;;;;;26.90;92.40;;;;;;5104845;28;19948;-47
2021/05/18 00:12:22;;;;;;;;;;;26.90;92.40;;;;;;5104840;28;19938;-48
2021/05/18 00:14:48;;;;;;;;;;;26.90;92.40;;;;;;5104676;28;19904;-46
2021/05/18 00:17:14;;;;;;;;;;;26.80;92.40;;;;;;5104996;28;19912;-55
2021/05/18 00:19:41;;;;;;;;;;;26.80;92.40;;;;;;5104606;28;19926;-51
2021/05/18 00:22:07;;;;;;;;;;;26.90;92.40;;;;;;5104792;28;19916;-50
2021/05/18 00:24:33;;;;;;;;;;;26.80;92.40;;;;;;5104782;28;19914;-51
2021/05/18 00:27:03;;;;;;;;;;;26.80;92.30;;;;;;5104574;28;19920;-52
2021/05/18 00:29:30;;;;;;;;;;;26.80;92.40;;;;;;5104378;28;19922;-47
2021/05/18 00:31:57;;;;;;;;;;;26.80;92.40;;;;;;5104496;28;20207;-56
2021/05/18 00:34:23;;;;;;;;;;;26.80;92.40;;;;;;5104355;28;19912;-52
2021/05/18 00:36:49;;;;;;;;;;;26.80;92.50;;;;;;5104498;28;19985;-46
2021/05/18 00:39:18;;;;;;;;;;;26.80;92.50;;;;;;5104581;28;19908;-51
2021/05/18 00:41:45;;;;;;;;;;;26.80;92.40;;;;;;5104199;28;19916;-50
2021/05/18 00:44:12;;;;;;;;;;;26.80;92.40;;;;;;5103016;28;19928;-50
2021/05/18 00:46:38;;;;;;;;;;;26.80;92.40;;;;;;5104187;28;19920;-47
2021/05/18 00:49:04;;;;;;;;;;;26.80;92.40;;;;;;5104395;28;20134;-52
2021/05/18 00:51:30;;;;;;;;;;;26.80;92.40;;;;;;5103229;28;20265;-51
2021/05/18 00:53:59;;;;;;;;;;;26.80;92.40;;;;;;5104386;28;19904;-51
2021/05/18 00:58:25;;;;;;;;;;;26.80;92.40;;;;;;5103168;28;19912;-52
2021/05/18 00:59:18;;;;;;;;;;;26.80;92.40;;;;;;5104195;28;19904;-45
2021/05/18 01:01:44;;;;;;;;;;;26.80;92.30;;;;;;5104226;28;19919;-50
2021/05/18 01:04:13;;;;;;;;;;;26.80;92.30;;;;;;5102992;28;19987;-49
2021/05/18 01:06:40;;;;;;;;;;;26.80;92.40;;;;;;5104079;28;19916;-49
2021/05/18 01:09:09;;;;;;;;;;;26.80;92.40;;;;;;5100084;28;19904;-54
2021/05/18 01:11:36;;;;;;;;;;;26.80;92.40;;;;;;5101379;28;20089;-51
2021/05/18 01:14:05;;;;;;;;;;;26.70;92.30;;;;;;5101125;28;19954;-50
2021/05/18 01:16:33;;;;;;;;;;;26.80;92.30;;;;;;5096334;28;19934;-49
2021/05/18 01:18:59;;;;;;;;;;;26.80;92.50;;;;;;5094319;28;19904;-49
2021/05/18 01:21:26;;;;;;;;;;;26.70;92.50;;;;;;5102018;28;19912;-47
2021/05/18 01:23:53;;;;;;;;;;;26.70;92.50;;;;;;5095584;28;19909;-51
2021/05/18 01:26:19;;;;;;;;;;;26.70;92.40;;;;;;5091784;28;19920;-47
2021/05/18 01:28:45;;;;;;;;;;;26.70;92.40;;;;;;5096003;28;20224;-48
2021/05/18 01:31:16;;;;;;;;;;;26.70;92.50;;;;;;5088732;28;19905;-51
2021/05/18 01:33:42;;;;;;;;;;;26.70;92.50;;;;;;5087384;28;19975;-55
2021/05/18 01:36:10;;;;;;;;;;;26.70;92.60;;;;;;5087278;28;19912;-48
2021/05/18 01:38:50;;;;;;;;;;;26.70;92.70;;;;;;5086969;28;19904;-49
2021/05/18 01:44:01;;;;;;;;;;;26.70;92.60;;;;;;5087083;28;19919;-52
2021/05/18 01:46:28;;;;;;;;;;;26.60;92.70;;;;;;5086964;28;19943;-52
2021/05/18 01:48:58;;;;;;;;;;;26.70;92.90;;;;;;5086177;28;20101;-49
2021/05/18 01:51:29;;;;;;;;;;;26.70;92.80;;;;;;5085826;28;20162;-48
2021/05/18 01:53:56;;;;;;;;;;;26.60;92.80;;;;;;5085714;28;19983;-52
2021/05/18 01:59:22;;;;;;;;;;;26.60;92.80;;;;;;5074782;28;20081;-49
2021/05/18 02:01:50;;;;;;;;;;;26.60;92.80;;;;;;5086896;28;19913;-48
2021/05/18 02:04:20;;;;;;;;;;;26.60;92.70;;;;;;5085555;28;19926;-55
2021/05/18 02:06:46;;;;;;;;;;;26.60;92.80;;;;;;5086451;28;19927;-50
2021/05/18 02:09:12;;;;;;;;;;;26.60;92.80;;;;;;5086568;28;19904;-49
2021/05/18 02:11:39;;;;;;;;;;;26.60;92.80;;;;;;5086488;28;19912;-49
2021/05/18 02:14:08;;;;;;;;;;;26.60;92.80;;;;;;5086617;28;20104;-50
2021/05/18 02:16:38;;;;;;;;;;;26.60;92.80;;;;;;5086531;28;20079;-47
2021/05/18 02:27:02;;;;;;;;;;;26.50;92.70;;;;;;5086443;28;19919;-49
2021/05/18 02:29:28;;;;;;;;;;;26.50;92.70;;;;;;5086271;28;19912;-49
2021/05/18 02:31:56;;;;;;;;;;;26.50;92.70;;;;;;5086469;28;20209;-51
2021/05/18 02:34:22;;;;;;;;;;;26.50;92.70;;;;;;5086058;28;19911;-55
2021/05/18 02:36:48;;;;;;;;;;;26.50;92.70;;;;;;5086307;28;19959;-52
2021/05/18 02:39:15;;;;;;;;;;;26.50;92.70;;;;;;5086100;28;19946;-48
2021/05/18 02:41:41;;;;;;;;;;;26.50;92.70;;;;;;5085079;28;19916;-52
2021/05/18 02:44:21;;;;;;;;;;;26.50;92.70;;;;;;5085945;28;19904;-49
2021/05/18 02:49:33;;;;;;;;;;;26.40;92.60;;;;;;5085452;28;19912;-49
2021/05/18 02:51:59;;;;;;;;;;;26.40;92.60;;;;;;5086014;28;19916;-52
2021/05/18 02:54:27;;;;;;;;;;;26.40;92.60;;;;;;5084551;28;20241;-53
2021/05/18 02:56:57;;;;;;;;;;;26.40;92.50;;;;;;5085903;28;20185;-48
2021/05/18 02:59:23;;;;;;;;;;;26.40;92.50;;;;;;5085479;28;19908;-51
2021/05/18 03:01:49;;;;;;;;;;;26.40;92.50;;;;;;5101152;28;19983;-52
2021/05/18 03:04:16;;;;;;;;;;;26.40;92.50;;;;;;5105416;28;19926;-52
2021/05/18 03:06:42;;;;;;;;;;;26.40;92.50;;;;;;5104851;28;19953;-52
2021/05/18 03:09:12;;;;;;;;;;;26.40;92.50;;;;;;5099773;28;20018;-48
2021/05/18 03:11:39;;;;;;;;;;;26.40;92.50;;;;;;5105923;28;19920;-54
2021/05/18 03:14:06;;;;;;;;;;;26.40;92.60;;;;;;5091080;28;19908;-55
2021/05/18 03:16:33;;;;;;;;;;;26.40;92.60;;;;;;5104456;28;19920;-50
2021/05/18 03:19:00;;;;;;;;;;;26.40;92.50;;;;;;5106031;28;19935;-49
2021/05/18 03:21:26;;;;;;;;;;;26.30;92.50;;;;;;5106087;28;19919;-52
2021/05/18 03:23:52;;;;;;;;;;;26.30;92.50;;;;;;5106040;28;19944;-51
2021/05/18 03:26:18;;;;;;;;;;;26.30;92.50;;;;;;5105736;28;19912;-54
2021/05/18 03:28:47;;;;;;;;;;;26.30;92.50;;;;;;5104852;28;19904;-52
2021/05/18 03:36:47;;;;;;;;;;;26.30;92.60;;;;;;5105896;28;20143;-53
2021/05/18 03:39:13;;;;;;;;;;;26.30;92.60;;;;;;5105584;28;20192;-51
2021/05/18 03:41:52;;;;;;;;;;;26.30;92.50;;;;;;5105960;28;19912;-48
2021/05/18 03:44:42;;;;;;;;;;;26.30;92.50;;;;;;5103851;28;19911;-46
2021/05/18 03:52:44;;;;;;;;;;;26.20;92.50;;;;;;5106012;28;19946;-49
2021/05/18 04:03:22;;;;;;;;;;;26.20;92.60;;;;;;5105984;28;20236;-50
2021/05/18 04:19:08;;;;;;;;;;;26.10;92.70;;;;;;5085115;28;20061;-49
2021/05/18 04:48:15;;;;;;;;;;;26.00;92.70;;;;;;5104740;28;19912;-54
2021/05/18 04:51:47;;;;;;;;;;;26.00;92.80;;;;;;5105113;28;19950;-52
2021/05/18 04:59:43;;;;;;;;;;;25.90;92.90;;;;;;5108847;28;19915;-51
2021/05/18 05:02:45;;;;;;;;;;;25.90;92.90;;;;;;5108879;28;19983;-51
2021/05/18 05:10:17;;;;;;;;;;;25.90;92.80;;;;;;5108317;28;19916;-52
2021/05/18 05:14:07;;;;;;;;;;;25.90;92.90;;;;;;5108149;28;19912;-49
2021/05/18 05:15:42;;;;;;;;;;;25.90;92.90;;;;;;5108040;28;20171;-52
2021/05/18 05:18:11;;;;;;;;;;;25.90;92.90;;;;;;5108616;28;19908;-51
2021/05/18 05:20:38;;;;;;;;;;;25.90;92.90;;;;;;5108211;28;19979;-53
2021/05/18 05:23:04;;;;;;;;;;;25.90;92.90;;;;;;5108396;28;19916;-54
2021/05/18 05:25:31;;;;;;;;;;;25.90;92.90;;;;;;5108094;28;19951;-53
2021/05/18 05:27:57;;;;;;;;;;;25.90;92.90;;;;;;5108325;28;19908;-53
2021/05/18 05:30:23;;;;;;;;;;;25.90;92.90;;;;;;5107901;28;19971;-52
2021/05/18 05:32:49;;;;;;;;;;;25.90;92.90;;;;;;5108360;28;19979;-52
2021/05/18 05:35:16;;;;;;;;;;;25.90;92.90;;;;;;5108006;28;19908;-51
2021/05/18 05:37:43;;;;;;;;;;;25.90;92.90;;;;;;5108263;28;20175;-51
2021/05/18 05:40:09;;;;;;;;;;;25.90;92.80;;;;;;5108054;28;19915;-50
2021/05/18 05:42:35;;;;;;;;;;;25.90;92.90;;;;;;5108359;28;20034;-54
2021/05/18 05:45:02;;;;;;;;;;;25.80;92.90;;;;;;5107664;28;19966;-50
2021/05/18 05:47:28;;;;;;;;;;;25.80;92.90;;;;;;5108116;28;19912;-52
2021/05/18 05:49:55;;;;;;;;;;;25.80;92.90;;;;;;5108026;28;19936;-51
2021/05/18 05:52:22;;;;;;;;;;;25.90;92.90;;;;;;5107994;28;19946;-53
2021/05/18 05:54:52;;;;;;;;;;;25.80;92.90;;;;;;5107642;28;19949;-55
2021/05/18 05:57:21;;;;;;;;;;;25.80;92.90;;;;;;5108087;28;20020;-53
2021/05/18 05:59:47;;;;;;;;;;;25.80;92.90;;;;;;5107537;28;19904;-52
2021/05/18 06:02:13;;;;;;;;;;;25.80;92.80;;;;;;5107862;28;19912;-49
2021/05/18 06:04:39;;;;;;;;;;;25.80;92.90;;;;;;5107655;28;20213;-57
2021/05/18 06:07:05;;;;;;;;;;;25.80;92.90;;;;;;5107044;28;20168;-51
2021/05/18 06:09:33;;;;;;;;;;;25.80;92.90;;;;;;5107562;28;19904;-50
2021/05/18 06:17:16;;;;;;;;;;;25.80;92.90;;;;;;5107462;28;19912;-55
2021/05/18 06:49:37;;;;;;;;;;;25.70;92.70;;;;;;5105746;28;19936;-53
2021/05/18 06:52:04;;;;;;;;;;;25.70;92.70;;;;;;5106978;28;19912;-48
2021/05/18 06:54:30;;;;;;;;;;;25.60;92.60;;;;;;5106714;28;19905;-52
2021/05/18 06:57:00;;;;;;;;;;;25.60;92.60;;;;;;5105616;28;20100;-48
2021/05/18 07:01:56;;;;;;;;;;;25.60;92.60;;;;;;5106614;28;19912;-51
2021/05/18 07:04:24;;;;;;;;;;;25.70;92.70;;;;;;5106372;28;19971;-55
2021/05/18 07:07:11;;;;;;;;;;;25.60;92.70;;;;;;5106595;28;19912;-50
2021/05/18 07:09:38;;;;;;;;;;;25.60;92.60;;;;;;5106378;28;19904;-50
2021/05/18 07:12:04;;;;;;;;;;;25.60;92.60;;;;;;5106397;28;20053;-53
2021/05/18 07:14:30;;;;;;;;;;;25.60;92.60;;;;;;5106471;28;19904;-49
2021/05/18 07:16:56;;;;;;;;;;;25.60;92.60;;;;;;5105160;28;19919;-54
2021/05/18 07:19:22;;;;;;;;;;;25.60;92.60;;;;;;5105664;28;19946;-53
2021/05/18 07:21:49;;;;;;;;;;;25.60;92.60;;;;;;5106133;28;19978;-50
2021/05/18 07:24:20;;;;;;;;;;;25.60;92.60;;;;;;5106084;28;19945;-52
2021/05/18 07:26:47;;;;;;;;;;;25.60;92.60;;;;;;5106163;28;19948;-55
2021/05/18 07:29:13;;;;;;;;;;;25.60;92.50;;;;;;5105824;28;19912;-50
2021/05/18 07:31:39;;;;;;;;;;;25.60;92.50;;;;;;5106251;28;20146;-52
2021/05/18 07:34:05;;;;;;;;;;;25.50;92.50;;;;;;5105902;28;20131;-49
2021/05/18 07:36:32;;;;;;;;;;;25.60;92.50;;;;;;5105733;28;19912;-54
2021/05/18 07:38:58;;;;;;;;;;;25.50;92.50;;;;;;5105870;28;19967;-50
2021/05/18 07:41:24;;;;;;;;;;;25.50;92.50;;;;;;5105880;28;19983;-58
2021/05/18 07:43:50;;;;;;;;;;;25.50;92.40;;;;;;5105608;28;19949;-50
2021/05/18 07:46:19;;;;;;;;;;;25.50;92.40;;;;;;5105496;28;19923;-53
2021/05/18 07:51:54;;;;;;;;;;;25.50;92.50;;;;;;5084522;28;19915;-49
2021/05/18 07:59:55;;;;;;;;;;;25.50;92.40;;;;;;5105197;28;19915;-53
2021/05/18 08:07:41;;;;;;;;;;;25.40;92.30;;;;;;5105343;28;19914;-56
2021/05/18 08:10:12;;;;;;;;;;;25.40;92.30;;;;;;5104695;28;20207;-49
2021/05/18 08:12:38;;;;;;;;;;;25.40;92.30;;;;;;5105162;28;19973;-53
2021/05/18 09:36:37;;;;;;;;;;;25.10;92.30;;;;;;5104105;28;19915;-50
2021/05/18 10:36:00;;;;;;;;;;;24.90;92.30;;;;;;5106597;28;19939;-49
2021/05/18 10:38:32;;;;;;;;;;;24.80;92.40;;;;;;5106506;28;20223;-50
2021/05/18 10:41:18;;;;;;;;;;;24.80;92.40;;;;;;5106145;28;19942;-49
2021/05/18 10:44:06;;;;;;;;;;;24.90;92.50;;;;;;5106322;28;19912;-50
2021/05/18 10:46:51;;;;;;;;;;;24.80;92.40;;;;;;5106113;28;20207;-52
2021/05/18 10:49:31;;;;;;;;;;;24.80;92.50;;;;;;5106230;28;20201;-51
2021/05/18 10:51:59;;;;;;;;;;;24.80;92.50;;;;;;5106463;28;19912;-54
2021/05/18 10:54:29;;;;;;;;;;;24.90;92.50;;;;;;5105999;28;20260;-50
2021/05/18 10:57:01;;;;;;;;;;;24.90;92.50;;;;;;5106222;28;20100;-49
2021/05/18 10:59:33;;;;;;;;;;;24.80;92.50;;;;;;5106051;28;19905;-51
2021/05/18 11:02:05;;;;;;;;;;;24.90;92.60;;;;;;5106612;28;19990;-53
2021/05/18 11:04:33;;;;;;;;;;;24.90;92.60;;;;;;5105800;28;20260;-53
2021/05/18 11:07:00;;;;;;;;;;;24.90;92.60;;;;;;5105962;28;19912;-55
2021/05/18 11:09:27;;;;;;;;;;;24.90;92.70;;;;;;5105959;28;19919;-48
2021/05/18 11:12:00;;;;;;;;;;;24.90;92.70;;;;;;5105963;28;20115;-50
2021/05/18 11:14:37;;;;;;;;;;;24.90;92.70;;;;;;5105079;28;20019;-52
2021/05/18 11:17:07;;;;;;;;;;;24.90;92.80;;;;;;5104919;28;19912;-51
2021/05/18 11:19:33;;;;;;;;;;;24.90;92.80;;;;;;5105651;28;19904;-56
2021/05/18 11:22:03;;;;;;;;;;;25.00;92.80;;;;;;5104499;28;19927;-54
2021/05/18 11:24:29;;;;;;;;;;;25.00;92.80;;;;;;5105605;28;19986;-48
2021/05/18 11:26:55;;;;;;;;;;;25.00;92.80;;;;;;5105639;28;19911;-50
2021/05/18 11:29:41;;;;;;;;;;;25.00;92.70;;;;;;5105473;28;20208;-53
2021/05/18 11:32:08;;;;;;;;;;;25.00;92.60;;;;;;5105645;28;19920;-49
2021/05/18 11:34:49;;;;;;;;;;;25.00;92.60;;;;;;5105639;28;20069;-49
2021/05/18 11:37:15;;;;;;;;;;;25.00;92.70;;;;;;5105588;28;19918;-47
2021/05/18 11:39:41;;;;;;;;;;;25.10;92.70;;;;;;5105195;28;20193;-49
2021/05/18 11:42:07;;;;;;;;;;;25.00;92.60;;;;;;5105548;28;19912;-48
2021/05/18 11:44:34;;;;;;;;;;;25.10;92.60;;;;;;5105380;28;19911;-49
2021/05/18 11:47:01;;;;;;;;;;;25.10;92.60;;;;;;5105046;28;19924;-49
2021/05/18 11:49:27;;;;;;;;;;;25.20;92.70;;;;;;5105361;28;19942;-51
2021/05/18 11:51:55;;;;;;;;;;;25.20;92.70;;;;;;5105059;28;19951;-51
2021/05/18 11:54:23;;;;;;;;;;;25.20;92.60;;;;;;5104847;28;20184;-60
2021/05/18 11:56:51;;;;;;;;;;;25.20;92.70;;;;;;5105416;28;19912;-53
2021/05/18 11:59:18;;;;;;;;;;;25.20;92.70;;;;;;5104928;28;19911;-54
2021/05/18 12:01:55;;;;;;;;;;;25.30;92.70;;;;;;5104855;28;20230;-54
2021/05/18 12:04:32;;;;;;;;;;;25.30;92.60;;;;;;5105208;28;20077;-53
2021/05/18 12:06:59;;;;;;;;;;;25.30;92.60;;;;;;5104579;28;20203;-47
2021/05/18 12:09:26;;;;;;;;;;;25.30;92.60;;;;;;5104805;28;19936;-52
2021/05/18 12:12:00;;;;;;;;;;;25.30;92.70;;;;;;5103793;28;19912;-51
2021/05/18 12:14:28;;;;;;;;;;;25.40;92.70;;;;;;5104587;28;19908;-52
2021/05/18 12:16:54;;;;;;;;;;;25.40;92.70;;;;;;5104838;28;19912;-55
2021/05/18 12:19:21;;;;;;;;;;;25.50;92.60;;;;;;5103514;28;19919;-55
2021/05/18 12:21:49;;;;;;;;;;;25.50;92.60;;;;;;5104686;28;19912;-55
2021/05/18 12:24:16;;;;;;;;;;;25.50;92.60;;;;;;5104569;28;19941;-46
2021/05/18 12:26:52;;;;;;;;;;;25.50;92.60;;;;;;5104423;28;19916;-47
2021/05/18 12:29:47;;;;;;;;;;;25.60;92.60;;;;;;5104860;28;19975;-49
2021/05/18 12:32:21;;;;;;;;;;;25.60;92.60;;;;;;5087546;28;19912;-56
2021/05/18 12:34:51;;;;;;;;;;;25.60;92.50;;;;;;5104472;28;19934;-51
2021/05/18 12:37:18;;;;;;;;;;;25.70;92.50;;;;;;5104518;28;19958;-47
2021/05/18 12:39:45;;;;;;;;;;;25.70;92.40;;;;;;5104022;28;19931;-48
2021/05/18 12:42:23;;;;;;;;;;;25.80;92.50;;;;;;5104515;28;19912;-48
2021/05/18 12:45:00;;;;;;;;;;;25.80;92.30;;;;;;5104097;28;19946;-53
2021/05/18 12:47:29;;;;;;;;;;;25.80;92.20;;;;;;5104334;28;19983;-52
2021/05/18 12:49:56;;;;;;;;;;;25.90;92.10;;;;;;5104315;28;19904;-54
2021/05/18 12:52:23;;;;;;;;;;;25.90;91.90;;;;;;5104525;28;19947;-52
2021/05/18 12:54:54;;;;;;;;;;;26.00;92.00;;;;;;5085949;28;19980;-50
2021/05/18 12:57:25;;;;;;;;;;;26.00;92.10;;;;;;5089276;28;19916;-50
2021/05/18 13:00:07;;;;;;;;;;;26.10;92.10;;;;;;5089238;28;19913;-47
2021/05/18 13:02:40;;;;;;;;;;;26.10;92.00;;;;;;5084421;28;20123;-46
2021/05/18 13:05:07;;;;;;;;;;;26.10;92.10;;;;;;5083825;28;20203;-48
2021/05/18 13:07:33;;;;;;;;;;;26.10;92.00;;;;;;5084249;28;19917;-50
2021/05/18 13:10:05;;;;;;;;;;;26.20;92.10;;;;;;5083925;28;19905;-46
2021/05/18 13:12:32;;;;;;;;;;;26.20;92.30;;;;;;5084198;28;19920;-47
2021/05/18 13:14:59;;;;;;;;;;;26.20;92.20;;;;;;5083974;28;19942;-49
2021/05/18 13:17:26;;;;;;;;;;;26.30;92.10;;;;;;5084771;28;19954;-53
2021/05/18 13:19:59;;;;;;;;;;;26.30;92.00;;;;;;5087720;28;19905;-46
2021/05/18 13:22:27;;;;;;;;;;;26.40;92.00;;;;;;5087978;28;19912;-48
2021/05/18 13:27:58;;;;;;;;;;;26.50;91.80;;;;;;5088012;28;19958;-49
2021/05/18 13:30:26;;;;;;;;;;;26.50;91.70;;;;;;5087221;28;20108;-48
2021/05/18 13:32:53;;;;;;;;;;;26.60;91.60;;;;;;5088037;28;20177;-50
2021/05/18 13:35:20;;;;;;;;;;;26.60;91.50;;;;;;5087455;28;19904;-56
2021/05/18 13:37:47;;;;;;;;;;;26.70;91.60;;;;;;5087826;28;19952;-53
2021/05/18 13:40:14;;;;;;;;;;;26.70;91.50;;;;;;5087467;28;19904;-54
2021/05/18 13:42:40;;;;;;;;;;;26.80;91.50;;;;;;5086357;28;19970;-55
2021/05/18 13:45:07;;;;;;;;;;;26.80;91.50;;;;;;5087227;28;20127;-49
2021/05/18 13:47:34;;;;;;;;;;;26.80;91.50;;;;;;5087712;28;19912;-51
2021/05/18 13:50:00;;;;;;;;;;;26.90;91.50;;;;;;5087324;28;19905;-51
2021/05/18 13:52:26;;;;;;;;;;;26.90;91.50;;;;;;5087383;28;19912;-51
2021/05/18 13:54:53;;;;;;;;;;;26.90;91.40;;;;;;5086286;28;20196;-49
2021/05/18 13:57:19;;;;;;;;;;;26.90;91.40;;;;;;5087309;28;20011;-52
2021/05/18 13:59:48;;;;;;;;;;;26.90;91.40;;;;;;5086947;28;19905;-49
2021/05/18 14:02:15;;;;;;;;;;;26.90;91.40;;;;;;5087215;28;19912;-50
2021/05/18 14:04:42;;;;;;;;;;;26.90;91.40;;;;;;5105165;28;19981;-50
2021/05/18 14:07:43;;;;;;;;;;;26.90;91.30;;;;;;5092455;28;19916;-47
2021/05/18 14:10:10;;;;;;;;;;;27.00;91.40;;;;;;5086846;28;19905;-48
2021/05/18 14:12:36;;;;;;;;;;;27.00;91.40;;;;;;5089863;28;19912;-56
2021/05/18 14:15:03;;;;;;;;;;;27.00;91.40;;;;;;5086884;28;19949;-44
2021/05/18 14:17:30;;;;;;;;;;;27.00;91.40;;;;;;5086877;28;19912;-48
2021/05/18 14:19:56;;;;;;;;;;;27.00;91.30;;;;;;5086799;28;19904;-49
2021/05/18 14:22:22;;;;;;;;;;;27.10;91.30;;;;;;5087014;28;19917;-48
2021/05/18 14:27:30;;;;;;;;;;;27.10;91.30;;;;;;5088973;28;19913;-51
2021/05/18 14:29:56;;;;;;;;;;;27.10;91.30;;;;;;5106447;28;19912;-46
2021/05/18 14:32:22;;;;;;;;;;;27.10;91.30;;;;;;5105508;28;19915;-47
2021/05/18 14:34:49;;;;;;;;;;;27.10;91.20;;;;;;5106833;28;19983;-46
2021/05/18 14:37:16;;;;;;;;;;;27.20;91.20;;;;;;5105497;28;19909;-52
2021/05/18 14:45:05;;;;;;;;;;;27.30;90.40;;;;;;5106254;28;19923;-48
2021/05/18 14:47:40;;;;;;;;;;;27.30;90.40;;;;;;5106736;28;19958;-53
2021/05/18 14:55:36;;;;;;;;;;;27.40;90.30;;;;;;5102001;28;19923;-52
2021/05/18 14:58:03;;;;;;;;;;;27.50;89.70;;;;;;5105589;28;19920;-52
2021/05/18 15:00:29;;;;;;;;;;;27.50;89.20;;;;;;5106298;28;20077;-54
2021/05/18 15:02:55;;;;;;;;;;;27.50;89.30;;;;;;5106480;28;19912;-51
2021/05/18 15:05:24;;;;;;;;;;;27.60;89.30;;;;;;5106000;28;19908;-46
2021/05/18 15:07:50;;;;;;;;;;;27.60;89.30;;;;;;5105092;28;19912;-47
2021/05/18 15:10:17;;;;;;;;;;;27.60;89.10;;;;;;5105960;28;19911;-47
2021/05/18 15:12:46;;;;;;;;;;;27.60;88.90;;;;;;5105071;28;20243;-47
2021/05/18 15:15:13;;;;;;;;;;;27.60;88.50;;;;;;5105068;28;19907;-47
2021/05/18 15:17:39;;;;;;;;;;;27.70;88.20;;;;;;5106091;28;20192;-50
2021/05/18 15:20:06;;;;;;;;;;;27.70;87.70;;;;;;5105690;28;19904;-50
2021/05/18 15:22:33;;;;;;;;;;;27.70;87.50;;;;;;5106183;28;20091;-49
2021/05/18 15:24:59;;;;;;;;;;;27.70;87.50;;;;;;5105771;28;19908;-48
2021/05/18 15:27:26;;;;;;;;;;;27.80;87.60;;;;;;5105655;28;19912;-47
2021/05/18 15:29:53;;;;;;;;;;;27.80;87.40;;;;;;5105675;28;19971;-53
2021/05/18 15:32:19;;;;;;;;;;;27.90;86.50;;;;;;5105895;28;19934;-49
2021/05/18 15:34:45;;;;;;;;;;;27.90;86.60;;;;;;5105671;28;20212;-52
2021/05/18 15:37:15;;;;;;;;;;;27.90;86.50;;;;;;5105627;28;19957;-48
2021/05/18 15:39:42;;;;;;;;;;;27.90;86.40;;;;;;5104927;28;19904;-51
2021/05/18 15:42:09;;;;;;;;;;;28.00;86.60;;;;;;5105437;28;20207;-53
2021/05/18 15:44:35;;;;;;;;;;;28.00;86.30;;;;;;5099766;28;19915;-49
2021/05/18 15:47:02;;;;;;;;;;;28.10;86.60;;;;;;5090678;28;19942;-54
2021/05/18 15:49:29;;;;;;;;;;;28.10;86.70;;;;;;5085462;28;19930;-50
2021/05/18 15:51:56;;;;;;;;;;;28.10;86.80;;;;;;5091610;28;19913;-49
2021/05/18 15:54:23;;;;;;;;;;;28.20;86.80;;;;;;5093961;28;19904;-53
2021/05/18 15:56:50;;;;;;;;;;;28.20;86.90;;;;;;5095633;28;19912;-48
2021/05/18 15:59:16;;;;;;;;;;;28.20;86.80;;;;;;5090572;28;19904;-52
2021/05/18 16:01:42;;;;;;;;;;;28.30;86.70;;;;;;5092321;28;19916;-49
2021/05/18 16:04:09;;;;;;;;;;;28.30;86.60;;;;;;5096195;28;19904;-50
2021/05/18 16:06:43;;;;;;;;;;;28.30;86.50;;;;;;5104966;28;19922;-50
2021/05/18 16:09:10;;;;;;;;;;;28.40;85.80;;;;;;5104718;28;20267;-46
2021/05/18 16:11:37;;;;;;;;;;;28.40;86.10;;;;;;5104842;28;19912;-53
2021/05/18 16:14:03;;;;;;;;;;;28.50;86.10;;;;;;5104744;28;19971;-50
2021/05/18 16:16:30;;;;;;;;;;;28.50;85.60;;;;;;5104699;28;20200;-47
2021/05/18 16:18:56;;;;;;;;;;;28.50;85.00;;;;;;5104920;28;19908;-52
2021/05/18 16:21:23;;;;;;;;;;;28.50;85.50;;;;;;5104808;28;19915;-46
2021/05/18 16:23:50;;;;;;;;;;;28.60;85.50;;;;;;5104420;28;19945;-53
2021/05/18 16:26:18;;;;;;;;;;;28.70;85.30;;;;;;5104335;28;19911;-54
2021/05/18 16:28:45;;;;;;;;;;;28.80;84.70;;;;;;5104728;28;20096;-50
2021/05/18 16:31:12;;;;;;;;;;;28.90;84.40;;;;;;5104576;28;19904;-46
2021/05/18 16:33:38;;;;;;;;;;;28.80;84.40;;;;;;5104635;28;19970;-48
2021/05/18 16:36:05;;;;;;;;;;;28.90;84.40;;;;;;5104258;28;19904;-49
2021/05/18 16:38:32;;;;;;;;;;;28.90;84.70;;;;;;5104300;28;19908;-47
2021/05/18 16:40:58;;;;;;;;;;;28.90;84.60;;;;;;5104792;28;20189;-53
2021/05/18 16:43:26;;;;;;;;;;;28.90;84.40;;;;;;5105596;28;20231;-51
2021/05/18 16:45:53;;;;;;;;;;;29.00;85.20;;;;;;5104124;28;19924;-52
2021/05/18 16:48:20;;;;;;;;;;;29.00;84.90;;;;;;5105066;28;20185;-47
2021/05/18 16:50:47;;;;;;;;;;;29.00;84.80;;;;;;5104528;28;19904;-50
2021/05/18 16:53:15;;;;;;;;;;;29.10;84.60;;;;;;5108940;28;19912;-52
2021/05/18 16:55:41;;;;;;;;;;;29.10;84.70;;;;;;5108782;28;19905;-55
2021/05/18 16:58:07;;;;;;;;;;;29.10;83.90;;;;;;5108649;28;19912;-46
2021/05/18 17:00:34;;;;;;;;;;;29.20;84.60;;;;;;5108851;28;19904;-48
2021/05/18 17:03:01;;;;;;;;;;;29.20;84.50;;;;;;5107663;28;19927;-43
2021/05/18 17:05:27;;;;;;;;;;;29.30;84.90;;;;;;5107146;28;19908;-44
2021/05/18 17:07:54;;;;;;;;;;;29.30;84.20;;;;;;5108690;28;19919;-51
2021/05/18 17:10:22;;;;;;;;;;;29.50;84.50;;;;;;5108227;28;20203;-49
2021/05/18 17:12:49;;;;;;;;;;;29.50;83.90;;;;;;5108760;28;19997;-52
2021/05/18 17:15:16;;;;;;;;;;;29.50;83.70;;;;;;5108278;28;19931;-55
2021/05/18 17:17:42;;;;;;;;;;;29.50;83.90;;;;;;5108434;28;20057;-49
2021/05/18 17:20:11;;;;;;;;;;;29.60;81.70;;;;;;5108095;28;20189;-52
2021/05/18 17:22:38;;;;;;;;;;;29.70;82.10;;;;;;5107102;28;19912;-48
2021/05/18 17:25:04;;;;;;;;;;;29.70;79.80;;;;;;5108015;28;19912;-44
2021/05/18 17:27:30;;;;;;;;;;;29.80;79.50;;;;;;5108375;28;19912;-46
2021/05/18 17:29:56;;;;;;;;;;;29.90;80.10;;;;;;5108052;28;19946;-49
2021/05/18 17:32:23;;;;;;;;;;;29.90;79.70;;;;;;5108061;28;19912;-48
2021/05/18 17:34:49;;;;;;;;;;;30.00;78.70;;;;;;5107793;28;19941;-45
2021/05/18 17:37:15;;;;;;;;;;;30.00;79.90;;;;;;5108026;28;20091;-48
2021/05/18 17:39:41;;;;;;;;;;;30.10;79.00;;;;;;5107597;28;19909;-50
2021/05/18 17:42:08;;;;;;;;;;;30.10;79.70;;;;;;5107853;28;19919;-50
2021/05/18 17:44:36;;;;;;;;;;;30.10;80.60;;;;;;5108208;28;20165;-52
2021/05/18 17:47:02;;;;;;;;;;;30.20;80.60;;;;;;5107481;28;20096;-48
2021/05/18 17:49:28;;;;;;;;;;;30.20;80.80;;;;;;5107582;28;19932;-50
2021/05/18 17:51:54;;;;;;;;;;;30.30;80.80;;;;;;5107706;28;19912;-56
2021/05/18 17:54:22;;;;;;;;;;;30.30;80.60;;;;;;5107392;28;19984;-54
2021/05/18 17:56:48;;;;;;;;;;;30.30;80.80;;;;;;5107606;28;20145;-54
2021/05/18 17:59:15;;;;;;;;;;;30.30;81.30;;;;;;5107251;28;19961;-54
2021/05/18 18:01:41;;;;;;;;;;;30.20;80.90;;;;;;5107170;28;19989;-52
2021/05/18 18:04:07;;;;;;;;;;;30.20;81.10;;;;;;5106586;28;19904;-49
2021/05/18 18:06:34;;;;;;;;;;;30.20;81.20;;;;;;5107392;28;20100;-52
2021/05/18 18:09:00;;;;;;;;;;;30.20;81.30;;;;;;5105868;28;19905;-50
2021/05/18 18:11:27;;;;;;;;;;;30.30;81.20;;;;;;5107148;28;19920;-53
2021/05/18 18:13:54;;;;;;;;;;;30.30;80.70;;;;;;5107069;28;20126;-49
2021/05/18 18:16:20;;;;;;;;;;;30.30;80.20;;;;;;5107189;28;19927;-50
2021/05/18 18:18:49;;;;;;;;;;;30.30;80.50;;;;;;5107045;28;20065;-49
2021/05/18 18:21:16;;;;;;;;;;;30.40;80.40;;;;;;5106829;28;19997;-53
2021/05/18 18:23:42;;;;;;;;;;;30.50;80.00;;;;;;5106745;28;20246;-53
2021/05/18 18:26:08;;;;;;;;;;;30.40;79.20;;;;;;5106381;28;19908;-50
2021/05/18 18:28:34;;;;;;;;;;;30.40;79.90;;;;;;5106396;28;20131;-49
2021/05/18 18:31:00;;;;;;;;;;;30.40;79.80;;;;;;5106518;28;19904;-53
2021/05/18 18:33:26;;;;;;;;;;;30.40;78.70;;;;;;5106364;28;19912;-56
2021/05/18 18:35:54;;;;;;;;;;;30.40;79.40;;;;;;5105961;28;19904;-46
2021/05/18 18:38:20;;;;;;;;;;;30.40;80.70;;;;;;5106652;28;20241;-48
2021/05/18 18:40:47;;;;;;;;;;;30.30;81.60;;;;;;5104727;28;19945;-56
2021/05/18 18:43:13;;;;;;;;;;;30.20;82.60;;;;;;5094252;28;19958;-44
2021/05/18 18:45:40;;;;;;;;;;;30.00;83.70;;;;;;5097167;28;20193;-50
2021/05/18 18:48:08;;;;;;;;;;;29.90;84.30;;;;;;5092734;28;19948;-43
2021/05/18 18:50:40;;;;;;;;;;;29.80;84.80;;;;;;5093738;28;19904;-51
2021/05/18 18:55:36;;;;;;;;;;;29.70;85.80;;;;;;5092072;28;19939;-53
2021/05/18 18:58:03;;;;;;;;;;;29.60;85.90;;;;;;5086545;28;19912;-50
2021/05/18 19:00:29;;;;;;;;;;;29.60;85.60;;;;;;5086055;28;19905;-45
2021/05/18 19:03:02;;;;;;;;;;;29.50;85.70;;;;;;5086053;28;19919;-49
2021/05/18 19:13:18;;;;;;;;;;;29.20;87.20;;;;;;5086411;28;19940;-50
2021/05/18 19:15:45;;;;;;;;;;;29.20;87.20;;;;;;5084614;28;19904;-49
2021/05/18 19:18:11;;;;;;;;;;;29.20;86.90;;;;;;5085927;28;19983;-48
2021/05/18 19:20:37;;;;;;;;;;;29.10;89.10;;;;;;5085772;28;20092;-48
2021/05/18 19:23:04;;;;;;;;;;;29.10;90.20;;;;;;5085752;28;19912;-50
2021/05/18 19:25:34;;;;;;;;;;;29.10;90.10;;;;;;5085479;28;20101;-52
2021/05/18 19:28:06;;;;;;;;;;;29.00;90.10;;;;;;5085805;28;19917;-54
2021/05/18 19:30:32;;;;;;;;;;;29.00;90.70;;;;;;5085201;28;19936;-52